sensor_id;sensor_type;location;lat;lon;timestamp;pressure;altitude;pressure_sealevel;temperature;humidity
76011;BME280;64701;43.536;1.478;2023-07-09T00:02:12;99637.06;;;24.45;61.33
76011;BME280;64701;43.536;1.478;2023-07-09T00:04:38;99644.16;;;24.41;61.90
76011;BME280;64701;43.536;1.478;2023-07-09T00:07:03;99645.22;;;24.40;62.29
76011;BME280;64701;43.536;1.478;2023-07-09T00:09:29;99641.47;;;24.36;62.75
76011;BME280;64701;43.536;1.478;2023-07-09T00:11:54;99642.56;;;24.35;62.16
76011;BME280;64701;43.536;1.478;2023-07-09T00:14:20;99646.34;;;24.34;61.92
76011;BME280;64701;43.536;1.478;2023-07-09T00:16:45;99640.69;;;24.25;62.60
76011;BME280;64701;43.536;1.478;2023-07-09T00:19:14;99645.31;;;24.25;62.88
76011;BME280;64701;43.536;1.478;2023-07-09T00:21:41;99645.31;;;24.25;62.44
76011;BME280;64701;43.536;1.478;2023-07-09T00:24:07;99641.00;;;24.24;62.29
76011;BME280;64701;43.536;1.478;2023-07-09T00:26:32;99647.47;;;24.23;62.23
76011;BME280;64701;43.536;1.478;2023-07-09T00:28:58;99648.03;;;24.20;62.55
76011;BME280;64701;43.536;1.478;2023-07-09T00:31:23;99639.38;;;24.18;62.79
76011;BME280;64701;43.536;1.478;2023-07-09T00:33:49;99643.16;;;24.17;62.80
76011;BME280;64701;43.536;1.478;2023-07-09T00:36:16;99643.69;;;24.14;62.53
76011;BME280;64701;43.536;1.478;2023-07-09T00:38:43;99645.88;;;24.12;62.74
76011;BME280;64701;43.536;1.478;2023-07-09T00:41:14;99638.84;;;24.11;62.73
76011;BME280;64701;43.536;1.478;2023-07-09T00:43:42;99636.16;;;24.06;62.78
76011;BME280;64701;43.536;1.478;2023-07-09T00:48:39;99638.91;;;24.00;63.56
76011;BME280;64701;43.536;1.478;2023-07-09T00:51:07;99631.06;;;23.99;64.03
76011;BME280;64701;43.536;1.478;2023-07-09T00:53:35;99636.19;;;23.95;64.02
76011;BME280;64701;43.536;1.478;2023-07-09T00:56:02;99634.59;;;23.94;63.31
76011;BME280;64701;43.536;1.478;2023-07-09T00:58:29;99624.31;;;23.91;63.78
76011;BME280;64701;43.536;1.478;2023-07-09T01:00:57;99631.09;;;23.89;64.11
76011;BME280;64701;43.536;1.478;2023-07-09T01:05:51;99622.97;;;23.84;63.75
76011;BME280;64701;43.536;1.478;2023-07-09T01:08:16;99621.66;;;23.81;64.30
76011;BME280;64701;43.536;1.478;2023-07-09T01:10:41;99616.78;;;23.78;64.66
76011;BME280;64701;43.536;1.478;2023-07-09T01:13:07;99618.16;;;23.76;64.56
76011;BME280;64701;43.536;1.478;2023-07-09T01:15:33;99606.56;;;23.70;65.59
76011;BME280;64701;43.536;1.478;2023-07-09T01:17:59;99611.97;;;23.70;65.20
76011;BME280;64701;43.536;1.478;2023-07-09T01:20:26;99612.50;;;23.67;64.83
76011;BME280;64701;43.536;1.478;2023-07-09T01:22:51;99605.47;;;23.66;65.19
76011;BME280;64701;43.536;1.478;2023-07-09T01:25:20;99606.00;;;23.68;64.87
76011;BME280;64701;43.536;1.478;2023-07-09T01:27:45;99603.56;;;23.67;65.43
76011;BME280;64701;43.536;1.478;2023-07-09T01:30:13;99600.06;;;23.66;65.46
76011;BME280;64701;43.536;1.478;2023-07-09T01:32:42;99613.06;;;23.64;65.68
76011;BME280;64701;43.536;1.478;2023-07-09T01:35:11;99611.72;;;23.56;66.42
76011;BME280;64701;43.536;1.478;2023-07-09T01:37:37;99612.81;;;23.55;66.05
76011;BME280;64701;43.536;1.478;2023-07-09T01:40:03;99608.78;;;23.53;66.53
76011;BME280;64701;43.536;1.478;2023-07-09T01:42:30;99607.94;;;23.42;68.16
76011;BME280;64701;43.536;1.478;2023-07-09T01:44:55;99596.59;;;23.40;67.36
76011;BME280;64701;43.536;1.478;2023-07-09T01:47:21;99596.59;;;23.40;66.80
76011;BME280;64701;43.536;1.478;2023-07-09T01:49:49;99595.22;;;23.43;67.00
76011;BME280;64701;43.536;1.478;2023-07-09T01:52:14;99592.00;;;23.41;67.93
76011;BME280;64701;43.536;1.478;2023-07-09T01:54:41;99596.88;;;23.34;68.54
76011;BME280;64701;43.536;1.478;2023-07-09T01:57:17;99589.88;;;23.28;68.81
76011;BME280;64701;43.536;1.478;2023-07-09T01:59:44;99587.19;;;23.23;68.73
76011;BME280;64701;43.536;1.478;2023-07-09T02:02:10;99579.06;;;23.07;70.25
76011;BME280;64701;43.536;1.478;2023-07-09T02:04:44;99587.72;;;23.14;68.99
76011;BME280;64701;43.536;1.478;2023-07-09T02:07:10;99590.97;;;23.11;69.66
76011;BME280;64701;43.536;1.478;2023-07-09T02:09:35;99587.19;;;23.07;70.40
76011;BME280;64701;43.536;1.478;2023-07-09T02:12:00;99582.88;;;23.11;69.20
76011;BME280;64701;43.536;1.478;2023-07-09T02:14:27;99585.84;;;23.10;69.67
76011;BME280;64701;43.536;1.478;2023-07-09T02:16:52;99593.13;;;23.14;68.91
76011;BME280;64701;43.536;1.478;2023-07-09T02:19:18;99581.78;;;23.17;68.50
76011;BME280;64701;43.536;1.478;2023-07-09T02:21:43;99587.19;;;23.07;71.18
76011;BME280;64701;43.536;1.478;2023-07-09T02:24:08;99579.38;;;23.06;70.72
76011;BME280;64701;43.536;1.478;2023-07-09T02:26:34;99573.97;;;23.06;69.38
76011;BME280;64701;43.536;1.478;2023-07-09T02:28:59;99575.31;;;23.03;70.69
76011;BME280;64701;43.536;1.478;2023-07-09T02:31:24;99576.94;;;23.04;69.95
76011;BME280;64701;43.536;1.478;2023-07-09T02:33:49;99576.13;;;23.04;69.92
76011;BME280;64701;43.536;1.478;2023-07-09T02:36:15;99573.16;;;23.05;69.77
76011;BME280;64701;43.536;1.478;2023-07-09T02:38:41;99572.59;;;23.03;70.45
76011;BME280;64701;43.536;1.478;2023-07-09T02:41:06;99569.91;;;23.03;70.50
76011;BME280;64701;43.536;1.478;2023-07-09T02:43:31;99563.44;;;22.99;71.28
76011;BME280;64701;43.536;1.478;2023-07-09T02:45:56;99565.06;;;22.90;72.90
76011;BME280;64701;43.536;1.478;2023-07-09T02:48:22;99565.31;;;22.84;73.70
76011;BME280;64701;43.536;1.478;2023-07-09T02:50:47;99566.13;;;22.84;72.08
76011;BME280;64701;43.536;1.478;2023-07-09T02:53:12;99569.13;;;22.88;71.56
76011;BME280;64701;43.536;1.478;2023-07-09T02:55:38;99562.88;;;22.82;74.53
76011;BME280;64701;43.536;1.478;2023-07-09T02:58:03;99559.13;;;22.73;73.40
76011;BME280;64701;43.536;1.478;2023-07-09T03:00:28;99555.34;;;22.74;73.38
76011;BME280;64701;43.536;1.478;2023-07-09T03:02:53;99554.78;;;22.77;73.69
76011;BME280;64701;43.536;1.478;2023-07-09T03:05:19;99552.63;;;22.79;72.64
76011;BME280;64701;43.536;1.478;2023-07-09T03:07:44;99553.44;;;22.79;72.78
76011;BME280;64701;43.536;1.478;2023-07-09T03:10:09;99557.50;;;22.77;73.12
76011;BME280;64701;43.536;1.478;2023-07-09T03:12:36;99572.63;;;22.78;73.12
76011;BME280;64701;43.536;1.478;2023-07-09T03:15:02;99578.56;;;22.80;72.04
76011;BME280;64701;43.536;1.478;2023-07-09T03:17:27;99577.50;;;22.81;73.62
76011;BME280;64701;43.536;1.478;2023-07-09T03:19:52;99582.88;;;22.81;73.11
76011;BME280;64701;43.536;1.478;2023-07-09T03:22:17;99585.03;;;22.79;72.86
76011;BME280;64701;43.536;1.478;2023-07-09T03:24:43;99595.56;;;22.75;74.07
76011;BME280;64701;43.536;1.478;2023-07-09T03:27:08;99602.56;;;22.76;72.93
76011;BME280;64701;43.536;1.478;2023-07-09T03:29:34;99604.50;;;22.76;72.65
76011;BME280;64701;43.536;1.478;2023-07-09T03:31:59;99600.97;;;22.75;74.64
76011;BME280;64701;43.536;1.478;2023-07-09T03:34:24;99611.78;;;22.75;73.57
76011;BME280;64701;43.536;1.478;2023-07-09T03:36:49;99621.75;;;22.75;73.64
76011;BME280;64701;43.536;1.478;2023-07-09T03:39:15;99634.13;;;22.66;76.34
76011;BME280;64701;43.536;1.478;2023-07-09T03:41:40;99623.88;;;22.68;73.80
76011;BME280;64701;43.536;1.478;2023-07-09T03:44:05;99629.00;;;22.69;73.11
76011;BME280;64701;43.536;1.478;2023-07-09T03:46:31;99624.44;;;22.70;73.35
76011;BME280;64701;43.536;1.478;2023-07-09T03:48:57;99631.97;;;22.68;72.89
76011;BME280;64701;43.536;1.478;2023-07-09T03:51:23;99623.06;;;22.67;72.76
76011;BME280;64701;43.536;1.478;2023-07-09T03:53:48;99626.56;;;22.68;72.86
76011;BME280;64701;43.536;1.478;2023-07-09T03:56:13;99619.56;;;22.67;73.14
76011;BME280;64701;43.536;1.478;2023-07-09T03:58:39;99620.09;;;22.64;72.63
76011;BME280;64701;43.536;1.478;2023-07-09T04:01:04;99614.69;;;22.64;72.59
76011;BME280;64701;43.536;1.478;2023-07-09T04:03:29;99616.84;;;22.62;72.88
76011;BME280;64701;43.536;1.478;2023-07-09T04:05:55;99623.88;;;22.63;72.64
76011;BME280;64701;43.536;1.478;2023-07-09T04:08:20;99617.09;;;22.60;72.94
76011;BME280;64701;43.536;1.478;2023-07-09T04:10:45;99624.13;;;22.56;74.29
76011;BME280;64701;43.536;1.478;2023-07-09T04:13:11;99625.47;;;22.54;73.70
76011;BME280;64701;43.536;1.478;2023-07-09T04:15:36;99621.13;;;22.53;74.03
76011;BME280;64701;43.536;1.478;2023-07-09T04:18:01;99621.44;;;22.51;74.05
76011;BME280;64701;43.536;1.478;2023-07-09T04:20:27;99624.38;;;22.50;73.74
76011;BME280;64701;43.536;1.478;2023-07-09T04:22:53;99622.75;;;22.49;74.40
76011;BME280;64701;43.536;1.478;2023-07-09T04:25:18;99613.28;;;22.41;75.58
76011;BME280;64701;43.536;1.478;2023-07-09T04:27:44;99609.75;;;22.30;77.23
76011;BME280;64701;43.536;1.478;2023-07-09T04:30:10;99617.84;;;22.30;76.67
76011;BME280;64701;43.536;1.478;2023-07-09T04:32:36;99618.94;;;22.29;75.71
76011;BME280;64701;43.536;1.478;2023-07-09T04:35:02;99619.22;;;22.33;75.46
76011;BME280;64701;43.536;1.478;2023-07-09T04:37:27;99614.66;;;22.33;74.58
76011;BME280;64701;43.536;1.478;2023-07-09T04:39:53;99616.25;;;22.34;74.94
76011;BME280;64701;43.536;1.478;2023-07-09T04:42:18;99618.41;;;22.37;75.18
76011;BME280;64701;43.536;1.478;2023-07-09T04:44:44;99619.78;;;22.40;74.38
76011;BME280;64701;43.536;1.478;2023-07-09T04:47:10;99637.84;;;22.39;75.81
76011;BME280;64701;43.536;1.478;2023-07-09T04:49:37;99640.56;;;22.39;75.46
76011;BME280;64701;43.536;1.478;2023-07-09T04:52:02;99638.38;;;22.42;75.01
76011;BME280;64701;43.536;1.478;2023-07-09T04:54:27;99636.25;;;22.44;74.74
76011;BME280;64701;43.536;1.478;2023-07-09T04:56:53;99638.69;;;22.45;74.59
76011;BME280;64701;43.536;1.478;2023-07-09T04:59:19;99645.72;;;22.46;75.08
76011;BME280;64701;43.536;1.478;2023-07-09T05:01:44;99653.50;;;22.43;76.75
76011;BME280;64701;43.536;1.478;2023-07-09T05:04:10;99655.13;;;22.38;76.83
76011;BME280;64701;43.536;1.478;2023-07-09T05:06:36;99660.53;;;22.38;77.70
76011;BME280;64701;43.536;1.478;2023-07-09T05:09:01;99658.34;;;22.40;76.51
76011;BME280;64701;43.536;1.478;2023-07-09T05:11:26;99664.84;;;22.45;75.89
76011;BME280;64701;43.536;1.478;2023-07-09T05:13:52;99668.88;;;22.47;76.24
76011;BME280;64701;43.536;1.478;2023-07-09T05:16:17;99668.38;;;22.50;75.62
76011;BME280;64701;43.536;1.478;2023-07-09T05:18:44;99667.81;;;22.53;75.35
76011;BME280;64701;43.536;1.478;2023-07-09T05:21:09;99674.31;;;22.52;76.64
76011;BME280;64701;43.536;1.478;2023-07-09T05:23:35;99674.03;;;22.54;76.26
76011;BME280;64701;43.536;1.478;2023-07-09T05:26:00;99678.59;;;22.43;77.83
76011;BME280;64701;43.536;1.478;2023-07-09T05:28:27;99684.81;;;22.49;77.04
76011;BME280;64701;43.536;1.478;2023-07-09T05:30:52;99679.16;;;22.50;76.68
76011;BME280;64701;43.536;1.478;2023-07-09T05:33:18;99676.22;;;22.52;77.66
76011;BME280;64701;43.536;1.478;2023-07-09T05:35:43;99672.41;;;22.53;77.52
76011;BME280;64701;43.536;1.478;2023-07-09T05:38:09;99685.38;;;22.56;77.55
76011;BME280;64701;43.536;1.478;2023-07-09T05:40:34;99693.50;;;22.56;77.62
76011;BME280;64701;43.536;1.478;2023-07-09T05:42:59;99683.50;;;22.56;77.14
76011;BME280;64701;43.536;1.478;2023-07-09T05:45:25;99691.34;;;22.58;77.80
76011;BME280;64701;43.536;1.478;2023-07-09T05:47:50;99693.75;;;22.59;77.70
76011;BME280;64701;43.536;1.478;2023-07-09T05:50:15;99688.66;;;22.63;76.70
76011;BME280;64701;43.536;1.478;2023-07-09T05:52:40;99696.47;;;22.64;76.60
76011;BME280;64701;43.536;1.478;2023-07-09T05:55:06;99701.63;;;22.71;75.98
76011;BME280;64701;43.536;1.478;2023-07-09T05:57:31;99701.38;;;22.72;76.49
76011;BME280;64701;43.536;1.478;2023-07-09T05:59:56;99705.97;;;22.72;76.32
76011;BME280;64701;43.536;1.478;2023-07-09T06:02:22;99714.06;;;22.77;76.09
76011;BME280;64701;43.536;1.478;2023-07-09T06:04:47;99707.59;;;22.78;75.70
76011;BME280;64701;43.536;1.478;2023-07-09T06:07:16;99705.19;;;22.87;75.37
76011;BME280;64701;43.536;1.478;2023-07-09T06:09:41;99712.50;;;22.91;76.35
76011;BME280;64701;43.536;1.478;2023-07-09T06:12:07;99721.41;;;22.97;75.21
76011;BME280;64701;43.536;1.478;2023-07-09T06:14:33;99716.84;;;23.07;74.88
76011;BME280;64701;43.536;1.478;2023-07-09T06:16:58;99725.50;;;23.14;75.27
76011;BME280;64701;43.536;1.478;2023-07-09T06:19:24;99724.97;;;23.23;75.12
76011;BME280;64701;43.536;1.478;2023-07-09T06:21:49;99734.13;;;23.32;74.96
76011;BME280;64701;43.536;1.478;2023-07-09T06:24:14;99731.44;;;23.37;74.84
76011;BME280;64701;43.536;1.478;2023-07-09T06:26:39;99739.59;;;23.47;75.10
76011;BME280;64701;43.536;1.478;2023-07-09T06:29:05;99740.94;;;23.49;75.85
76011;BME280;64701;43.536;1.478;2023-07-09T06:31:30;99742.28;;;23.57;76.12
76011;BME280;64701;43.536;1.478;2023-07-09T06:33:55;99746.06;;;23.61;76.19
76011;BME280;64701;43.536;1.478;2023-07-09T06:36:21;99745.53;;;23.69;76.58
76011;BME280;64701;43.536;1.478;2023-07-09T06:38:46;99747.13;;;23.80;75.82
76011;BME280;64701;43.536;1.478;2023-07-09T06:41:12;99737.69;;;23.83;77.63
76011;BME280;64701;43.536;1.478;2023-07-09T06:43:37;99748.72;;;23.91;76.98
76011;BME280;64701;43.536;1.478;2023-07-09T06:46:06;99749.00;;;24.00;76.35
76011;BME280;64701;43.536;1.478;2023-07-09T06:48:32;99754.66;;;24.09;76.14
76011;BME280;64701;43.536;1.478;2023-07-09T06:50:58;99754.63;;;24.14;77.08
76011;BME280;64701;43.536;1.478;2023-07-09T06:53:24;99753.00;;;24.18;77.59
76011;BME280;64701;43.536;1.478;2023-07-09T06:55:49;99758.69;;;24.21;78.20
76011;BME280;64701;43.536;1.478;2023-07-09T06:58:15;99763.81;;;24.28;78.73
76011;BME280;64701;43.536;1.478;2023-07-09T07:00:41;99767.09;;;24.30;79.11
76011;BME280;64701;43.536;1.478;2023-07-09T07:03:06;99762.47;;;24.35;78.43
76011;BME280;64701;43.536;1.478;2023-07-09T07:05:32;99766.22;;;24.39;77.65
76011;BME280;64701;43.536;1.478;2023-07-09T07:07:57;99766.19;;;24.45;76.15
76011;BME280;64701;43.536;1.478;2023-07-09T07:10:23;99773.50;;;24.54;76.86
76011;BME280;64701;43.536;1.478;2023-07-09T07:12:48;99775.59;;;24.62;76.83
76011;BME280;64701;43.536;1.478;2023-07-09T07:15:15;99775.88;;;24.66;77.97
76011;BME280;64701;43.536;1.478;2023-07-09T07:17:40;99775.00;;;24.75;77.47
76011;BME280;64701;43.536;1.478;2023-07-09T07:20:06;99784.22;;;24.74;78.67
76011;BME280;64701;43.536;1.478;2023-07-09T07:22:31;99792.31;;;24.79;78.67
76011;BME280;64701;43.536;1.478;2023-07-09T07:24:57;99791.50;;;24.89;76.88
76011;BME280;64701;43.536;1.478;2023-07-09T07:27:22;99787.38;;;24.97;76.95
76011;BME280;64701;43.536;1.478;2023-07-09T07:29:47;99795.47;;;25.07;76.36
76011;BME280;64701;43.536;1.478;2023-07-09T07:32:12;99797.06;;;25.13;73.77
76011;BME280;64701;43.536;1.478;2023-07-09T07:34:38;99796.75;;;25.14;73.79
76011;BME280;64701;43.536;1.478;2023-07-09T07:37:03;99794.34;;;25.13;71.53
76011;BME280;64701;43.536;1.478;2023-07-09T07:39:29;99804.09;;;25.14;69.39
76011;BME280;64701;43.536;1.478;2023-07-09T07:41:54;99810.56;;;25.18;70.86
76011;BME280;64701;43.536;1.478;2023-07-09T07:44:21;99815.16;;;25.23;71.02
76011;BME280;64701;43.536;1.478;2023-07-09T07:46:46;99817.53;;;25.29;70.20
76011;BME280;64701;43.536;1.478;2023-07-09T07:49:11;99809.38;;;25.34;71.32
76011;BME280;64701;43.536;1.478;2023-07-09T07:51:37;99814.88;;;25.24;72.28
76011;BME280;64701;43.536;1.478;2023-07-09T07:54:02;99822.41;;;25.32;73.34
76011;BME280;64701;43.536;1.478;2023-07-09T07:56:27;99829.38;;;25.43;73.86
76011;BME280;64701;43.536;1.478;2023-07-09T07:58:53;99831.00;;;25.44;76.37
76011;BME280;64701;43.536;1.478;2023-07-09T08:01:18;99829.06;;;25.50;76.27
76011;BME280;64701;43.536;1.478;2023-07-09T08:03:43;99835.59;;;25.49;76.61
76011;BME280;64701;43.536;1.478;2023-07-09T08:06:08;99836.38;;;25.54;76.50
76011;BME280;64701;43.536;1.478;2023-07-09T08:08:34;99849.09;;;25.54;76.47
76011;BME280;64701;43.536;1.478;2023-07-09T08:10:59;99849.97;;;25.49;77.92
76011;BME280;64701;43.536;1.478;2023-07-09T08:13:25;99846.34;;;25.64;76.77
76011;BME280;64701;43.536;1.478;2023-07-09T08:15:50;99853.13;;;25.67;76.93
76011;BME280;64701;43.536;1.478;2023-07-09T08:18:15;99856.16;;;25.60;76.62
76011;BME280;64701;43.536;1.478;2023-07-09T08:20:44;99863.44;;;25.65;77.00
76011;BME280;64701;43.536;1.478;2023-07-09T08:23:09;99874.84;;;25.62;77.18
76011;BME280;64701;43.536;1.478;2023-07-09T08:25:35;99875.06;;;25.70;76.33
76011;BME280;64701;43.536;1.478;2023-07-09T08:28:00;99877.22;;;25.73;76.09
76011;BME280;64701;43.536;1.478;2023-07-09T08:30:26;99872.38;;;25.65;76.57
76011;BME280;64701;43.536;1.478;2023-07-09T08:32:51;99876.63;;;25.76;75.44
76011;BME280;64701;43.536;1.478;2023-07-09T08:35:16;99878.50;;;25.81;76.67
76011;BME280;64701;43.536;1.478;2023-07-09T08:37:41;99869.25;;;25.82;76.06
76011;BME280;64701;43.536;1.478;2023-07-09T08:40:09;99873.31;;;25.84;75.16
76011;BME280;64701;43.536;1.478;2023-07-09T08:42:39;99868.41;;;25.91;73.24
76011;BME280;64701;43.536;1.478;2023-07-09T08:45:12;99867.25;;;25.97;73.14
76011;BME280;64701;43.536;1.478;2023-07-09T08:50:13;99876.16;;;26.03;74.94
76011;BME280;64701;43.536;1.478;2023-07-09T08:52:43;99877.69;;;26.14;74.35
76011;BME280;64701;43.536;1.478;2023-07-09T08:55:14;99874.53;;;26.02;74.80
76011;BME280;64701;43.536;1.478;2023-07-09T08:57:41;99873.97;;;26.05;74.11
76011;BME280;64701;43.536;1.478;2023-07-09T09:00:13;99879.44;;;26.00;75.47
76011;BME280;64701;43.536;1.478;2023-07-09T09:02:41;99877.22;;;26.07;74.75
76011;BME280;64701;43.536;1.478;2023-07-09T09:05:09;99877.22;;;26.07;74.47
76011;BME280;64701;43.536;1.478;2023-07-09T09:07:39;99891.78;;;26.16;73.94
76011;BME280;64701;43.536;1.478;2023-07-09T09:10:07;99892.56;;;26.17;73.80
76011;BME280;64701;43.536;1.478;2023-07-09T09:12:37;99884.16;;;26.18;73.95
76011;BME280;64701;43.536;1.478;2023-07-09T09:15:04;99887.66;;;26.24;73.53
76011;BME280;64701;43.536;1.478;2023-07-09T09:17:35;99884.16;;;26.18;73.43
76011;BME280;64701;43.536;1.478;2023-07-09T09:20:03;99894.94;;;26.28;73.53
76011;BME280;64701;43.536;1.478;2023-07-09T09:22:30;99891.63;;;26.36;73.08
76011;BME280;64701;43.536;1.478;2023-07-09T09:27:29;99894.88;;;26.38;71.90
76011;BME280;64701;43.536;1.478;2023-07-09T09:29:54;99903.28;;;26.37;72.83
76011;BME280;64701;43.536;1.478;2023-07-09T09:32:22;99897.53;;;26.44;71.85
76011;BME280;64701;43.536;1.478;2023-07-09T09:34:48;99898.56;;;26.48;72.60
76011;BME280;64701;43.536;1.478;2023-07-09T09:37:15;99899.31;;;26.53;73.28
76011;BME280;64701;43.536;1.478;2023-07-09T09:39:48;99900.25;;;26.44;72.12
76011;BME280;64701;43.536;1.478;2023-07-09T09:42:13;99898.00;;;26.51;72.09
76011;BME280;64701;43.536;1.478;2023-07-09T09:44:42;99905.75;;;26.62;71.36
76011;BME280;64701;43.536;1.478;2023-07-09T09:47:09;99907.13;;;26.60;71.45
76011;BME280;64701;43.536;1.478;2023-07-09T09:49:41;99912.00;;;26.63;72.51
76011;BME280;64701;43.536;1.478;2023-07-09T09:52:10;99910.00;;;26.73;71.30
76011;BME280;64701;43.536;1.478;2023-07-09T09:54:39;99913.00;;;26.72;71.54
76011;BME280;64701;43.536;1.478;2023-07-09T09:57:13;99917.59;;;26.71;71.96
76011;BME280;64701;43.536;1.478;2023-07-09T09:59:38;99927.72;;;26.66;71.96
76011;BME280;64701;43.536;1.478;2023-07-09T10:02:12;99916.72;;;26.81;71.06
76011;BME280;64701;43.536;1.478;2023-07-09T10:04:39;99920.50;;;26.80;71.82
76011;BME280;64701;43.536;1.478;2023-07-09T10:07:05;99926.66;;;26.91;70.62
76011;BME280;64701;43.536;1.478;2023-07-09T10:12:49;99937.13;;;27.02;69.86
76011;BME280;64701;43.536;1.478;2023-07-09T10:17:28;99943.59;;;27.06;69.80
76011;BME280;64701;43.536;1.478;2023-07-09T10:20:23;99932.63;;;26.93;70.61
76011;BME280;64701;43.536;1.478;2023-07-09T10:22:50;99934.06;;;27.09;69.19
76011;BME280;64701;43.536;1.478;2023-07-09T10:33:36;99941.03;;;27.39;69.79
76011;BME280;64701;43.536;1.478;2023-07-09T10:41:01;99945.66;;;27.81;68.18
76011;BME280;64701;43.536;1.478;2023-07-09T10:45:56;99939.59;;;28.02;66.74
76011;BME280;64701;43.536;1.478;2023-07-09T10:48:33;99946.75;;;28.17;67.24
76011;BME280;64701;43.536;1.478;2023-07-09T10:50:59;99947.38;;;28.28;66.74
76011;BME280;64701;43.536;1.478;2023-07-09T10:56:07;99935.53;;;28.51;65.42
76011;BME280;64701;43.536;1.478;2023-07-09T10:58:40;99929.88;;;28.61;63.88
76011;BME280;64701;43.536;1.478;2023-07-09T11:01:06;99938.38;;;28.60;64.10
76011;BME280;64701;43.536;1.478;2023-07-09T11:03:37;99935.84;;;28.63;64.14
76011;BME280;64701;43.536;1.478;2023-07-09T11:06:04;99937.81;;;28.76;64.02
76011;BME280;64701;43.536;1.478;2023-07-09T11:08:35;99933.47;;;28.75;64.26
76011;BME280;64701;43.536;1.478;2023-07-09T11:11:06;99928.13;;;28.84;63.99
76011;BME280;64701;43.536;1.478;2023-07-09T11:16:00;99934.59;;;28.88;64.60
76011;BME280;64701;43.536;1.478;2023-07-09T11:18:29;99931.88;;;28.88;63.11
76011;BME280;64701;43.536;1.478;2023-07-09T11:21:16;99932.16;;;28.87;64.28
76011;BME280;64701;43.536;1.478;2023-07-09T11:23:44;99934.00;;;29.05;64.25
76011;BME280;64701;43.536;1.478;2023-07-09T11:26:15;99929.94;;;29.16;63.03
76011;BME280;64701;43.536;1.478;2023-07-09T11:28:47;99928.63;;;29.27;63.75
76011;BME280;64701;43.536;1.478;2023-07-09T11:31:31;99922.38;;;29.13;62.35
76011;BME280;64701;43.536;1.478;2023-07-09T11:42:26;99919.44;;;29.37;64.25
76011;BME280;64701;43.536;1.478;2023-07-09T11:44:51;99917.91;;;29.44;61.53
76011;BME280;64701;43.536;1.478;2023-07-09T11:47:19;99912.34;;;29.49;61.11
76011;BME280;64701;43.536;1.478;2023-07-09T11:49:51;99916.56;;;29.55;60.84
76011;BME280;64701;43.536;1.478;2023-07-09T11:52:18;99922.41;;;29.62;59.51
76011;BME280;64701;43.536;1.478;2023-07-09T11:54:45;99914.97;;;29.54;59.71
76011;BME280;64701;43.536;1.478;2023-07-09T11:57:11;99920.34;;;29.68;62.21
76011;BME280;64701;43.536;1.478;2023-07-09T11:59:43;99910.00;;;29.56;61.32
76011;BME280;64701;43.536;1.478;2023-07-09T12:02:18;99914.22;;;29.62;61.55
76011;BME280;64701;43.536;1.478;2023-07-09T12:04:46;99905.19;;;29.76;60.70
76011;BME280;64701;43.536;1.478;2023-07-09T12:07:12;99902.03;;;29.82;61.40
76011;BME280;64701;43.536;1.478;2023-07-09T12:09:39;99905.34;;;29.93;59.29
76011;BME280;64701;43.536;1.478;2023-07-09T12:14:44;99904.34;;;30.11;59.97
76011;BME280;64701;43.536;1.478;2023-07-09T12:17:09;99899.13;;;30.23;58.85
76011;BME280;64701;43.536;1.478;2023-07-09T12:19:34;99902.53;;;30.29;60.40
76011;BME280;64701;43.536;1.478;2023-07-09T12:22:00;99902.50;;;30.20;58.13
76011;BME280;64701;43.536;1.478;2023-07-09T12:24:29;99900.16;;;30.36;59.27
76011;BME280;64701;43.536;1.478;2023-07-09T12:27:00;99902.06;;;30.27;58.29
76011;BME280;64701;43.536;1.478;2023-07-09T12:29:26;99897.88;;;30.29;60.15
76011;BME280;64701;43.536;1.478;2023-07-09T12:31:51;99889.41;;;30.39;57.37
76011;BME280;64701;43.536;1.478;2023-07-09T12:34:16;99894.09;;;30.48;57.20
76011;BME280;64701;43.536;1.478;2023-07-09T12:36:46;99885.50;;;30.63;56.50
76011;BME280;64701;43.536;1.478;2023-07-09T12:39:13;99892.44;;;30.60;59.34
76011;BME280;64701;43.536;1.478;2023-07-09T12:41:41;99901.59;;;30.56;57.25
76011;BME280;64701;43.536;1.478;2023-07-09T12:46:42;99897.22;;;30.94;58.48
76011;BME280;64701;43.536;1.478;2023-07-09T12:49:07;99896.84;;;30.87;58.50
76011;BME280;64701;43.536;1.478;2023-07-09T12:51:32;99887.75;;;31.00;56.51
76011;BME280;64701;43.536;1.478;2023-07-09T12:54:14;99896.75;;;30.92;55.46
76011;BME280;64701;43.536;1.478;2023-07-09T12:56:40;99892.53;;;30.86;55.99
76011;BME280;64701;43.536;1.478;2023-07-09T12:59:13;99894.69;;;31.06;58.60
76011;BME280;64701;43.536;1.478;2023-07-09T13:01:40;99890.88;;;31.25;57.71
76011;BME280;64701;43.536;1.478;2023-07-09T13:04:07;99889.75;;;31.26;56.13
76011;BME280;64701;43.536;1.478;2023-07-09T13:06:36;99900.53;;;31.31;56.06
76011;BME280;64701;43.536;1.478;2023-07-09T13:09:02;99893.50;;;31.64;56.83
76011;BME280;64701;43.536;1.478;2023-07-09T13:11:36;99891.13;;;31.63;55.02
76011;BME280;64701;43.536;1.478;2023-07-09T13:14:03;99889.31;;;31.58;55.21
76011;BME280;64701;43.536;1.478;2023-07-09T13:16:29;99895.91;;;31.83;55.09
76011;BME280;64701;43.536;1.478;2023-07-09T13:18:54;99891.22;;;32.00;54.95
76011;BME280;64701;43.536;1.478;2023-07-09T13:21:20;99889.16;;;32.15;55.98
76011;BME280;64701;43.536;1.478;2023-07-09T13:23:45;99888.13;;;32.36;54.10
76011;BME280;64701;43.536;1.478;2023-07-09T13:26:12;99884.03;;;32.51;53.04
76011;BME280;64701;43.536;1.478;2023-07-09T13:28:37;99885.19;;;32.41;53.88
76011;BME280;64701;43.536;1.478;2023-07-09T13:31:16;99886.53;;;32.35;53.30
76011;BME280;64701;43.536;1.478;2023-07-09T13:33:42;99880.97;;;32.53;52.17
76011;BME280;64701;43.536;1.478;2023-07-09T13:36:08;99877.72;;;32.68;52.30
76011;BME280;64701;43.536;1.478;2023-07-09T13:38:33;99876.72;;;32.72;52.02
76011;BME280;64701;43.536;1.478;2023-07-09T13:41:00;99881.69;;;32.79;51.13
76011;BME280;64701;43.536;1.478;2023-07-09T13:43:28;99877.91;;;32.92;51.42
76011;BME280;64701;43.536;1.478;2023-07-09T13:45:54;99880.03;;;32.87;51.81
76011;BME280;64701;43.536;1.478;2023-07-09T13:48:21;99886.75;;;32.98;52.12